Time;durP1;ratioP1;P1;durP2;ratioP2;P2;SDS_P1;SDS_P2;PMS_P1;PMS_P2;Temp;Humidity;BMP_temperature;BMP_pressure;BME280_temperature;BME280_humidity;BME280_pressure;Samples;Min_cycle;Max_cycle;Signal;HPM_P1;HPM_P2
2021/06/16 00:01:49;;;;;;;9.53;7.93;;;;;;;15.34;98.47;101142.47;5010460;28;20215;-71
2021/06/16 00:04:16;;;;;;;10.20;7.87;;;;;;;15.36;97.67;101150.28;5004265;28;20207;-72
2021/06/16 00:06:42;;;;;;;9.33;7.43;;;;;;;15.34;96.40;101145.09;5003547;28;20562;-71
2021/06/16 00:09:09;;;;;;;12.63;6.73;;;;;;;15.38;95.20;101150.22;5004186;28;20220;-72
2021/06/16 00:11:35;;;;;;;8.50;6.73;;;;;;;15.37;95.17;101151.13;5001162;28;20219;-71
2021/06/16 00:14:03;;;;;;;7.93;6.20;;;;;;;15.31;94.54;101149.59;5008937;28;20217;-71
2021/06/16 00:16:31;;;;;;;8.70;6.50;;;;;;;15.33;93.14;101150.41;5014351;28;20229;-71
2021/06/16 00:18:58;;;;;;;10.53;6.27;;;;;;;15.33;92.89;101148.63;5011634;28;20706;-71
2021/06/16 00:21:24;;;;;;;8.63;6.10;;;;;;;15.33;91.66;101156.50;5008742;28;20648;-71
2021/06/16 00:23:51;;;;;;;8.10;5.53;;;;;;;15.32;91.26;101162.69;5004294;28;20289;-71
2021/06/16 00:26:18;;;;;;;8.07;5.70;;;;;;;15.32;90.67;101164.47;5001411;28;20769;-72
2021/06/16 00:28:44;;;;;;;7.50;5.83;;;;;;;15.28;89.95;101160.22;5004906;28;20230;-71
2021/06/16 00:31:13;;;;;;;6.80;5.40;;;;;;;15.28;90.08;101155.81;5008833;28;20769;-71
2021/06/16 00:33:41;;;;;;;6.40;5.50;;;;;;;15.25;89.69;101163.81;4987909;28;20219;-71
2021/06/16 00:36:08;;;;;;;5.53;4.77;;;;;;;15.21;89.46;101158.72;5009913;28;20291;-71
2021/06/16 00:38:34;;;;;;;7.40;5.00;;;;;;;15.19;88.99;101155.31;5009123;28;20232;-71
2021/06/16 00:41:01;;;;;;;5.80;4.67;;;;;;;15.20;87.24;101159.66;5011614;28;20260;-71
2021/06/16 00:43:27;;;;;;;7.27;4.43;;;;;;;15.22;87.62;101155.19;4990512;28;20202;-71
2021/06/16 00:45:54;;;;;;;4.97;4.00;;;;;;;15.20;85.66;101157.88;5010405;28;20300;-71
2021/06/16 00:48:20;;;;;;;5.30;4.23;;;;;;;15.24;84.24;101167.34;5002367;28;20221;-71
2021/06/16 00:50:48;;;;;;;5.13;4.23;;;;;;;15.23;84.31;101165.66;5010480;28;20295;-71
2021/06/16 00:53:14;;;;;;;8.30;3.93;;;;;;;15.21;83.16;101175.34;5005908;28;20222;-71
2021/06/16 00:55:42;;;;;;;9.40;4.00;;;;;;;15.21;83.56;101174.50;5003041;28;20212;-72
2021/06/16 00:58:10;;;;;;;6.00;3.90;;;;;;;15.24;81.44;101179.63;5012312;28;20244;-71
2021/06/16 01:00:42;;;;;;;6.30;3.90;;;;;;;15.22;81.68;101169.19;5009112;28;20217;-71
2021/06/16 01:03:13;;;;;;;4.40;4.00;;;;;;;15.20;81.78;101171.00;4998596;28;20236;-71
2021/06/16 01:05:43;;;;;;;4.57;3.93;;;;;;;15.19;80.45;101168.44;5004915;28;20212;-71
2021/06/16 01:08:15;;;;;;;5.13;3.83;;;;;;;15.17;80.67;101181.63;5007481;28;20229;-72
2021/06/16 01:10:43;;;;;;;6.47;4.10;;;;;;;15.12;80.70;101176.53;5008674;28;20200;-71
2021/06/16 01:13:18;;;;;;;4.07;3.27;;;;;;;15.08;80.28;101182.81;5011950;28;20224;-72
2021/06/16 01:15:50;;;;;;;4.97;4.00;;;;;;;15.06;80.66;101176.78;4987661;28;20208;-71
2021/06/16 01:18:20;;;;;;;7.67;3.73;;;;;;;15.03;81.42;101173.41;5006865;28;20292;-72
2021/06/16 01:20:49;;;;;;;5.30;4.13;;;;;;;14.99;81.13;101171.81;5009884;28;20745;-71
2021/06/16 01:23:36;;;;;;;6.47;3.97;;;;;;;14.95;81.68;101174.53;5006153;28;20237;-71
2021/06/16 01:26:25;;;;;;;4.93;3.90;;;;;;;14.91;81.96;101179.94;5001404;28;20204;-72
2021/06/16 01:28:55;;;;;;;4.83;3.70;;;;;;;14.83;82.12;101182.84;5010464;28;20201;-71
2021/06/16 01:31:22;;;;;;;4.80;3.87;;;;;;;14.80;82.64;101177.69;5008979;28;20211;-71
2021/06/16 01:33:51;;;;;;;6.53;4.37;;;;;;;14.77;82.20;101178.66;5004479;28;20229;-71
2021/06/16 01:36:18;;;;;;;5.10;3.70;;;;;;;14.79;82.75;101172.50;5004798;28;20197;-72
2021/06/16 01:38:46;;;;;;;8.20;4.33;;;;;;;14.77;83.71;101169.91;4988479;28;20228;-71
2021/06/16 01:41:16;;;;;;;5.70;4.27;;;;;;;14.74;82.70;101172.66;5006237;28;20208;-72
2021/06/16 01:43:44;;;;;;;4.70;4.07;;;;;;;14.72;82.96;101167.47;5010554;28;20206;-71
2021/06/16 01:46:12;;;;;;;7.60;4.50;;;;;;;14.71;82.88;101178.03;5003707;28;20284;-71
2021/06/16 01:48:40;;;;;;;6.13;3.90;;;;;;;14.69;83.73;101177.22;5005574;28;20228;-71
2021/06/16 01:51:08;;;;;;;4.80;4.10;;;;;;;14.65;84.21;101173.84;5004284;28;20211;-71
2021/06/16 01:53:36;;;;;;;6.47;4.03;;;;;;;14.57;83.07;101168.81;5013962;28;20204;-70
2021/06/16 01:56:04;;;;;;;6.97;4.10;;;;;;;14.57;84.74;101163.56;5006295;28;20216;-71
2021/06/16 01:58:32;;;;;;;5.40;4.10;;;;;;;14.59;86.78;101166.16;4981902;28;20762;-71
2021/06/16 02:00:59;;;;;;;5.87;4.13;;;;;;;14.50;85.00;101169.94;5007363;28;20220;-71
2021/06/16 02:03:25;;;;;;;6.47;3.77;;;;;;;14.47;85.64;101164.78;5010005;28;20236;-71
2021/06/16 02:05:52;;;;;;;5.00;4.30;;;;;;;14.42;85.49;101164.06;5008372;28;20219;-71
2021/06/16 02:08:22;;;;;;;5.23;4.13;;;;;;;14.41;84.68;101165.00;5006060;28;20226;-71
2021/06/16 02:10:54;;;;;;;6.27;4.10;;;;;;;14.37;83.54;101169.50;5010448;28;20195;-71
2021/06/16 02:13:27;;;;;;;7.43;4.43;;;;;;;14.37;83.69;101168.59;5001361;28;20244;-71
2021/06/16 02:15:57;;;;;;;5.73;3.90;;;;;;;14.36;83.72;101167.75;5006942;28;20650;-71
2021/06/16 02:18:29;;;;;;;4.90;4.17;;;;;;;14.36;83.62;101169.53;5002594;28;20221;-71
2021/06/16 02:20:56;;;;;;;4.17;3.60;;;;;;;14.34;82.81;101171.34;5007739;28;20248;-71
2021/06/16 02:23:24;;;;;;;5.00;3.77;;;;;;;14.37;85.61;101161.63;5005686;28;20573;-71
2021/06/16 02:25:50;;;;;;;4.03;3.57;;;;;;;14.34;82.34;101160.88;5009165;28;20302;-71
2021/06/16 02:28:16;;;;;;;3.97;3.47;;;;;;;14.35;81.04;101173.06;4999310;28;20924;-71
2021/06/16 02:30:43;;;;;;;4.47;3.80;;;;;;;14.38;81.82;101170.34;5004114;28;20708;-71
2021/06/16 02:33:11;;;;;;;6.50;3.57;;;;;;;14.36;83.31;101167.75;5002920;28;20557;-71
2021/06/16 02:35:37;;;;;;;5.83;3.80;;;;;;;14.36;81.84;101169.53;5003226;28;20259;-71
2021/06/16 02:38:08;;;;;;;3.77;3.37;;;;;;;14.36;81.16;101166.91;5006236;28;20230;-71
2021/06/16 02:40:36;;;;;;;3.73;3.13;;;;;;;14.37;81.14;101166.88;4999278;28;20227;-71
2021/06/16 02:43:06;;;;;;;6.10;3.47;;;;;;;14.36;81.10;101162.50;5000155;28;20204;-71
2021/06/16 02:45:33;;;;;;;5.93;3.30;;;;;;;14.39;79.90;101169.44;5015228;28;20232;-71
2021/06/16 02:48:00;;;;;;;6.23;3.80;;;;;;;14.40;80.38;101163.28;5002738;28;20221;-71
2021/06/16 02:50:29;;;;;;;4.23;3.43;;;;;;;14.40;80.29;101163.28;4998989;28;20209;-71
2021/06/16 02:53:00;;;;;;;4.87;3.30;;;;;;;14.39;79.82;101164.19;4989090;28;20211;-71
2021/06/16 02:55:29;;;;;;;4.10;2.80;;;;;;;14.39;79.01;101154.56;5008277;28;20207;-71
2021/06/16 02:57:57;;;;;;;3.70;2.87;;;;;;;14.41;80.26;101158.91;5004517;28;20228;-71
2021/06/16 03:00:23;;;;;;;4.77;3.13;;;;;;;14.39;79.13;101162.41;5002566;28;20311;-71
2021/06/16 03:02:51;;;;;;;5.03;3.00;;;;;;;14.39;78.56;101165.03;5007931;28;20329;-71
2021/06/16 03:05:20;;;;;;;3.80;2.80;;;;;;;14.42;78.49;101166.69;5002760;28;20253;-71
2021/06/16 03:07:49;;;;;;;2.90;2.40;;;;;;;14.41;78.02;101162.38;4984825;28;20575;-71
2021/06/16 03:10:17;;;;;;;5.23;2.70;;;;;;;14.44;78.49;101164.03;5007231;28;20295;-71
2021/06/16 03:12:47;;;;;;;4.10;2.77;;;;;;;14.44;77.24;101164.03;5007322;28;20212;-72
2021/06/16 03:15:15;;;;;;;4.63;3.07;;;;;;;14.44;78.14;101171.88;5008994;28;20204;-72
2021/06/16 03:17:44;;;;;;;5.77;2.80;;;;;;;14.42;77.96;101161.44;5005200;28;20232;-72
2021/06/16 03:20:13;;;;;;;6.23;3.00;;;;;;;14.43;79.18;101160.56;5003109;28;20320;-71
2021/06/16 03:22:40;;;;;;;3.60;2.90;;;;;;;14.41;78.12;101161.53;5001518;28;20208;-72
2021/06/16 03:25:10;;;;;;;5.23;2.87;;;;;;;14.39;78.74;101159.78;5007247;28;20841;-72
2021/06/16 03:27:38;;;;;;;3.57;2.87;;;;;;;14.39;78.53;101165.03;5006945;28;20217;-73
2021/06/16 03:30:06;;;;;;;5.23;2.77;;;;;;;14.42;79.15;101157.97;5001131;28;20291;-74
2021/06/16 03:32:34;;;;;;;3.63;2.80;;;;;;;14.39;78.87;101165.03;5004382;28;20197;-74
2021/06/16 03:35:00;;;;;;;4.47;3.27;;;;;;;14.39;79.67;101159.78;5005014;28;20945;-71
2021/06/16 03:37:27;;;;;;;4.50;3.00;;;;;;;14.37;79.27;101161.63;5005790;28;20239;-72
2021/06/16 03:39:55;;;;;;;3.97;3.40;;;;;;;14.37;79.94;101155.50;5005242;28;20243;-71
2021/06/16 03:42:24;;;;;;;4.60;3.50;;;;;;;14.36;80.91;101145.94;5007333;28;20192;-71
2021/06/16 03:44:51;;;;;;;5.57;3.10;;;;;;;14.35;81.33;101150.31;5005691;28;20207;-71
2021/06/16 03:47:20;;;;;;;4.63;3.30;;;;;;;14.38;80.65;101150.19;5002010;28;20213;-71
2021/06/16 03:49:49;;;;;;;4.17;3.00;;;;;;;14.48;84.22;101144.66;5006147;28;20241;-71
2021/06/16 03:52:17;;;;;;;4.87;3.17;;;;;;;14.45;82.16;101153.47;4999227;28;20197;-72
2021/06/16 03:54:46;;;;;;;6.00;3.17;;;;;;;14.45;79.06;101153.47;5001326;28;20200;-72
2021/06/16 03:57:13;;;;;;;4.80;3.07;;;;;;;14.50;80.85;101148.94;5000044;28;20231;-72
2021/06/16 03:59:41;;;;;;;3.67;2.70;;;;;;;14.51;79.12;101149.78;5011059;28;20338;-71
2021/06/16 04:02:08;;;;;;;6.80;3.00;;;;;;;14.54;79.41;101154.94;4995545;28;20608;-72
2021/06/16 04:04:35;;;;;;;4.13;3.10;;;;;;;14.63;80.96;101161.66;5008940;28;20893;-71
2021/06/16 04:07:02;;;;;;;3.40;2.67;;;;;;;14.62;78.58;101160.81;5006552;28;20262;-72
2021/06/16 04:09:29;;;;;;;4.60;2.83;;;;;;;14.70;79.06;101166.63;5008450;28;20196;-71
2021/06/16 04:11:56;;;;;;;5.53;2.90;;;;;;;14.76;77.88;101161.19;5002834;28;20212;-72
2021/06/16 04:14:23;;;;;;;2.93;2.50;;;;;;;14.86;77.09;101158.22;5005216;28;20212;-71
2021/06/16 04:16:55;;;;;;;4.27;2.93;;;;;;;14.98;77.21;101162.19;5007499;28;20220;-71
2021/06/16 04:19:22;;;;;;;4.43;2.67;;;;;;;15.06;75.37;101165.41;5001669;28;20213;-72
2021/06/16 04:21:48;;;;;;;4.03;2.77;;;;;;;15.13;75.32;101166.91;4981939;28;20228;-71
2021/06/16 04:24:14;;;;;;;3.90;2.40;;;;;;;15.20;74.55;101168.38;5004486;28;20267;-71
2021/06/16 04:26:41;;;;;;;3.47;2.70;;;;;;;15.22;74.43;101160.47;5003901;28;20687;-72
2021/06/16 04:29:07;;;;;;;4.43;2.73;;;;;;;15.26;74.59;101167.28;4998997;28;20927;-71
2021/06/16 04:31:35;;;;;;;4.20;2.60;;;;;;;15.40;74.59;101167.63;5003741;28;20221;-72
2021/06/16 04:34:03;;;;;;;4.17;2.40;;;;;;;15.53;73.47;101168.91;4999527;28;20292;-72
2021/06/16 04:36:30;;;;;;;4.27;2.33;;;;;;;15.68;71.95;101166.59;4983832;28;20213;-71
2021/06/16 04:38:56;;;;;;;2.93;2.40;;;;;;;15.82;71.96;101166.94;5002120;28;20198;-71
2021/06/16 04:41:22;;;;;;;3.20;2.30;;;;;;;15.98;70.18;101169.81;5005719;28;20238;-71
2021/06/16 04:43:49;;;;;;;4.20;2.30;;;;;;;16.14;69.65;101167.41;5000001;28;20254;-71
2021/06/16 04:46:15;;;;;;;2.47;1.93;;;;;;;16.26;69.68;101166.91;5004290;28;20215;-72
2021/06/16 04:48:43;;;;;;;4.40;2.00;;;;;;;16.35;67.75;101176.19;4999539;28;20909;-72
2021/06/16 04:51:10;;;;;;;2.37;1.90;;;;;;;16.30;68.01;101174.69;5006765;28;20288;-72
2021/06/16 04:53:37;;;;;;;5.33;2.40;;;;;;;16.38;68.84;101178.72;5004008;28;20279;-72
2021/06/16 04:56:05;;;;;;;3.13;2.10;;;;;;;16.42;68.54;101172.38;5004068;28;20233;-71
2021/06/16 04:58:31;;;;;;;2.90;2.20;;;;;;;16.50;67.76;101177.34;4995774;28;20875;-71
2021/06/16 05:00:57;;;;;;;5.27;2.40;;;;;;;16.58;67.61;101180.50;5000614;28;20543;-72
2021/06/16 05:03:24;;;;;;;4.80;2.13;;;;;;;16.57;66.68;101183.19;5001193;28;21000;-71
2021/06/16 05:05:50;;;;;;;4.00;2.00;;;;;;;16.66;66.78;101177.56;5008431;28;20566;-71
2021/06/16 05:08:18;;;;;;;3.43;2.07;;;;;;;16.71;65.68;101178.22;5009187;28;20239;-71
2021/06/16 05:10:44;;;;;;;2.80;2.10;;;;;;;16.69;66.16;101185.28;5009280;28;20711;-71
2021/06/16 05:13:11;;;;;;;3.47;1.73;;;;;;;16.74;66.35;101182.47;5010332;28;20223;-71
2021/06/16 05:15:38;;;;;;;3.10;2.27;;;;;;;16.75;66.53;101184.19;5005101;28;20742;-71
2021/06/16 05:18:07;;;;;;;2.27;2.07;;;;;;;16.93;66.26;101186.06;5004952;28;20232;-71
2021/06/16 05:20:34;;;;;;;4.23;2.57;;;;;;;17.03;64.85;101191.78;4997537;28;20221;-71
2021/06/16 05:23:03;;;;;;;2.23;1.73;;;;;;;17.12;65.04;101187.88;5008906;28;20655;-71
2021/06/16 05:25:30;;;;;;;3.63;1.90;;;;;;;17.23;66.16;101189.09;5007130;28;20263;-71
2021/06/16 05:27:57;;;;;;;6.20;2.00;;;;;;;17.41;65.91;101184.78;5003897;28;20719;-71
2021/06/16 05:30:24;;;;;;;2.90;1.80;;;;;;;17.49;64.33;101188.84;4999949;28;20199;-72
2021/06/16 05:32:50;;;;;;;2.63;2.00;;;;;;;17.46;63.89;101191.63;5005460;28;20437;-71
2021/06/16 05:35:18;;;;;;;3.03;2.07;;;;;;;17.48;62.93;101201.16;5003475;28;20201;-71
2021/06/16 05:37:45;;;;;;;3.27;1.60;;;;;;;17.59;63.19;101192.78;5007575;28;20229;-71
2021/06/16 05:40:14;;;;;;;2.80;1.90;;;;;;;17.74;64.02;101191.19;5004321;28;20229;-71
2021/06/16 05:42:42;;;;;;;2.13;1.70;;;;;;;17.87;63.20;101192.38;5005739;28;20203;-71
2021/06/16 05:45:10;;;;;;;2.13;1.50;;;;;;;17.98;61.23;101195.31;5008069;28;20279;-71
2021/06/16 05:47:36;;;;;;;2.80;1.70;;;;;;;18.06;61.92;101191.47;5008750;28;20236;-71
2021/06/16 05:50:03;;;;;;;3.53;1.70;;;;;;;18.12;60.97;101204.38;5003181;28;20307;-71
2021/06/16 05:52:29;;;;;;;1.90;1.50;;;;;;;18.21;60.38;101192.53;5007334;28;20673;-71
2021/06/16 05:54:56;;;;;;;2.73;1.60;;;;;;;18.28;59.34;101194.75;5004168;28;20224;-71
2021/06/16 05:57:23;;;;;;;3.23;1.60;;;;;;;18.43;60.00;101194.94;5004772;28;20617;-71
2021/06/16 05:59:50;;;;;;;1.50;1.33;;;;;;;18.55;59.43;101203.06;5000403;28;20564;-71
2021/06/16 06:02:17;;;;;;;1.77;1.50;;;;;;;18.68;58.63;101205.97;5005468;28;20220;-71
2021/06/16 06:04:43;;;;;;;3.80;1.53;;;;;;;18.83;58.58;101195.59;5002639;28;20208;-71
2021/06/16 06:07:09;;;;;;;1.50;1.40;;;;;;;18.86;58.75;101196.28;5007861;28;20254;-71
2021/06/16 06:09:36;;;;;;;1.63;1.50;;;;;;;18.83;57.89;101193.78;5002261;28;20219;-71
2021/06/16 06:12:03;;;;;;;2.50;1.70;;;;;;;18.74;58.20;101197.72;5002003;28;20719;-71
2021/06/16 06:14:29;;;;;;;3.00;1.50;;;;;;;18.75;58.01;101188.03;5001547;28;20308;-71
2021/06/16 06:16:57;;;;;;;2.53;1.50;;;;;;;18.81;58.46;101200.06;5007020;28;20232;-71
2021/06/16 06:19:23;;;;;;;2.30;1.60;;;;;;;18.89;57.38;101197.88;5002882;28;20749;-71
2021/06/16 06:21:50;;;;;;;3.60;1.60;;;;;;;19.03;57.49;101203.34;5007627;28;20363;-71
2021/06/16 06:24:16;;;;;;;2.87;1.70;;;;;;;19.15;58.51;101191.25;5001574;28;20676;-71
2021/06/16 06:26:43;;;;;;;1.90;1.40;;;;;;;19.28;57.25;101188.81;5005724;28;20217;-71
2021/06/16 06:29:09;;;;;;;3.40;1.70;;;;;;;19.32;56.19;101195.63;5000602;28;20670;-72
2021/06/16 06:31:36;;;;;;;4.63;1.50;;;;;;;19.33;56.61;101199.13;5006262;28;20239;-71
2021/06/16 06:34:03;;;;;;;2.23;1.60;;;;;;;19.45;57.58;101187.88;5005783;28;20599;-71
2021/06/16 06:36:30;;;;;;;2.23;1.90;;;;;;;19.67;58.16;101192.88;5003545;28;20204;-71
2021/06/16 06:38:56;;;;;;;6.03;3.73;;;;;;;19.85;57.70;101188.38;5005573;28;20210;-71
2021/06/16 06:41:23;;;;;;;3.93;3.00;;;;;;;19.78;55.08;101187.00;5001801;28;20231;-71
2021/06/16 06:43:49;;;;;;;2.10;1.77;;;;;;;19.80;56.73;101188.59;5004561;28;20278;-72
2021/06/16 06:46:15;;;;;;;2.73;1.80;;;;;;;19.95;56.16;101199.28;5003017;28;20236;-72
2021/06/16 06:48:42;;;;;;;3.00;1.73;;;;;;;20.00;56.12;101191.94;5008104;28;20232;-71
2021/06/16 06:51:10;;;;;;;3.23;2.03;;;;;;;20.12;57.19;101195.66;4995606;28;20205;-71
2021/06/16 06:53:37;;;;;;;2.03;1.50;;;;;;;20.23;56.34;101193.28;5005452;28;20688;-71
2021/06/16 06:56:03;;;;;;;3.73;1.70;;;;;;;20.34;56.40;101197.94;4999190;28;21505;-71
2021/06/16 06:58:48;;;;;;;1.60;1.50;;;;;;;20.47;56.59;101201.56;5003678;28;20216;-72
2021/06/16 07:01:29;;;;;;;2.47;1.73;;;;;;;20.56;54.84;101192.22;4998771;28;20615;-71
2021/06/16 07:04:00;;;;;;;4.80;1.60;;;;;;;20.69;54.41;101203.00;5004128;28;20201;-71
2021/06/16 07:06:45;;;;;;;4.03;1.67;;;;;;;20.66;54.70;101197.88;4984272;28;20204;-72
2021/06/16 07:09:40;;;;;;;3.17;1.80;;;;;;;20.57;55.05;101189.50;5004866;28;20202;-71
2021/06/16 07:12:12;;;;;;;4.03;1.80;;;;;;;20.49;54.78;101186.47;5002889;28;20188;-71
2021/06/16 07:14:42;;;;;;;4.63;2.57;;;;;;;20.50;55.10;101188.16;5002292;28;20306;-71
2021/06/16 07:17:35;;;;;;;4.53;2.00;;;;;;;20.57;56.15;101189.50;5002321;28;20305;-72
2021/06/16 07:20:19;;;;;;;2.40;1.60;;;;;;;20.76;55.61;101186.63;4998799;28;20201;-72
2021/06/16 07:23:31;;;;;;;3.17;1.67;;;;;;;20.84;54.13;101186.16;4984672;28;20200;-72
2021/06/16 07:26:07;;;;;;;3.37;1.60;;;;;;;21.00;55.13;101183.44;5004449;28;20266;-72
2021/06/16 07:28:41;;;;;;;2.23;1.40;;;;;;;21.12;53.94;101176.53;4997513;28;20240;-72
2021/06/16 07:31:19;;;;;;;2.83;1.57;;;;;;;21.09;52.51;101180.25;5000258;28;20279;-71
2021/06/16 07:33:56;;;;;;;2.67;1.50;;;;;;;21.24;53.53;101175.78;4978369;28;20196;-71
2021/06/16 07:36:33;;;;;;;3.83;1.57;;;;;;;21.30;53.42;101175.41;4997494;28;20200;-71
2021/06/16 07:39:06;;;;;;;1.97;1.63;;;;;;;21.45;52.36;101175.38;4999481;28;20559;-71
2021/06/16 07:42:07;;;;;;;2.23;1.50;;;;;;;21.52;52.64;101179.38;5004142;28;20216;-72
2021/06/16 07:44:42;;;;;;;4.23;1.73;;;;;;;21.60;53.15;101177.09;5002268;28;20604;-71
2021/06/16 07:47:11;;;;;;;2.23;1.50;;;;;;;21.71;52.89;101182.56;4997436;28;20257;-72
2021/06/16 07:49:42;;;;;;;2.47;1.57;;;;;;;21.67;52.11;101181.06;5003382;28;20351;-72
2021/06/16 07:52:27;;;;;;;2.50;1.50;;;;;;;21.79;51.54;101176.75;4996080;28;20211;-72
2021/06/16 07:55:03;;;;;;;2.57;1.60;;;;;;;21.93;51.67;101178.50;5004441;28;20296;-72
2021/06/16 07:57:33;;;;;;;1.67;1.50;;;;;;;22.04;51.25;101176.03;5003460;28;20247;-72
2021/06/16 08:00:14;;;;;;;2.43;1.67;;;;;;;22.11;52.12;101166.69;5003707;28;20308;-71
2021/06/16 08:02:44;;;;;;;2.50;1.80;;;;;;;21.93;50.71;101179.38;4999467;28;20319;-72
2021/06/16 08:05:24;;;;;;;1.50;1.40;;;;;;;21.92;51.16;101174.16;5001196;28;20768;-72
2021/06/16 08:08:03;;;;;;;3.00;1.73;;;;;;;21.97;51.23;101181.81;5001871;28;20979;-72
2021/06/16 08:10:34;;;;;;;2.13;1.40;;;;;;;21.98;50.32;101179.06;4997327;28;20197;-72
2021/06/16 08:13:06;;;;;;;4.00;1.50;;;;;;;21.96;50.23;101180.13;5001642;28;20764;-72
2021/06/16 08:19:08;;;;;;;2.90;1.73;;;;;;;22.36;50.91;101175.72;4988060;28;20599;-72
2021/06/16 08:21:59;;;;;;;1.97;1.50;;;;;;;22.21;48.88;101177.53;4988864;28;20702;-72
2021/06/16 08:25:00;;;;;;;2.73;1.60;;;;;;;22.26;48.55;101180.75;5001510;28;20201;-72
2021/06/16 08:27:30;;;;;;;3.67;1.33;;;;;;;22.39;49.09;101174.63;5002784;28;20738;-71
2021/06/16 08:29:56;;;;;;;3.93;1.50;;;;;;;22.80;51.36;101168.31;5002590;28;20295;-71
2021/06/16 08:32:22;;;;;;;3.90;1.47;;;;;;;22.85;46.81;101177.69;5004561;28;20291;-73
2021/06/16 08:34:49;;;;;;;2.13;1.30;;;;;;;22.88;46.81;101185.44;5003833;28;20212;-74
2021/06/16 08:37:16;;;;;;;2.47;1.30;;;;;;;23.02;46.58;101183.63;4987417;28;20342;-70
2021/06/16 08:39:42;;;;;;;2.77;1.20;;;;;;;23.11;46.05;101183.00;5003445;28;20737;-71
2021/06/16 08:42:11;;;;;;;2.40;1.40;;;;;;;23.01;45.62;101177.47;5002016;28;20666;-71
2021/06/16 08:44:39;;;;;;;1.50;1.40;;;;;;;22.81;45.58;101170.00;5002771;28;20228;-70
2021/06/16 08:47:06;;;;;;;2.60;1.40;;;;;;;23.01;46.09;101164.16;5001617;28;20693;-70
2021/06/16 08:49:34;;;;;;;1.73;1.33;;;;;;;23.15;44.55;101167.72;5007656;28;20307;-71
2021/06/16 08:52:01;;;;;;;2.47;1.30;;;;;;;23.29;45.30;101166.69;5008093;28;20195;-71
2021/06/16 08:54:28;;;;;;;4.27;1.30;;;;;;;23.44;45.14;101170.94;5003459;28;20685;-71
2021/06/16 08:56:54;;;;;;;3.63;1.50;;;;;;;23.44;44.99;101168.28;5002436;28;20240;-72
2021/06/16 08:59:21;;;;;;;2.35;1.40;;;;;;;23.52;45.16;101160.59;5004654;28;20217;-71
2021/06/16 09:01:49;;;;;;;2.23;1.30;;;;;;;23.62;45.42;101166.09;4998213;28;20227;-70
2021/06/16 09:04:46;;;;;;;1.55;1.13;;;;;;;23.78;44.94;101164.03;5004934;28;20232;-71
2021/06/16 09:07:15;;;;;;;1.98;1.30;;;;;;;23.78;44.32;101158.69;4993528;28;20263;-73
2021/06/16 09:09:42;;;;;;;1.55;1.30;;;;;;;23.89;44.77;101165.91;5000774;28;20687;-71
2021/06/16 09:12:12;;;;;;;1.45;1.35;;;;;;;24.05;46.02;101160.31;5001036;28;20200;-73
2021/06/16 09:14:51;;;;;;;1.90;1.48;;;;;;;24.30;44.73;101166.44;4985990;28;20369;-70
2021/06/16 09:17:22;;;;;;;1.98;1.42;;;;;;;24.26;43.51;101167.66;4999454;28;20576;-71
2021/06/16 09:19:54;;;;;;;1.85;1.35;;;;;;;24.16;44.40;101170.16;5004812;28;20303;-71
2021/06/16 09:22:28;;;;;;;2.75;1.42;;;;;;;24.17;46.06;101162.06;4999121;28;20221;-71
2021/06/16 09:24:56;;;;;;;4.88;1.50;;;;;;;24.23;44.39;101167.88;5002800;28;20201;-73
2021/06/16 09:27:43;;;;;;;1.80;1.50;;;;;;;24.29;47.11;101152.28;5002460;28;20228;-70
2021/06/16 09:30:30;;;;;;;4.70;1.70;;;;;;;24.24;44.28;101173.09;4998855;28;20203;-73
2021/06/16 09:32:59;;;;;;;3.65;1.52;;;;;;;23.94;44.88;101162.91;5004591;28;20204;-70
2021/06/16 09:35:28;;;;;;;2.75;1.60;;;;;;;24.11;45.39;101164.31;5003570;28;20200;-70
2021/06/16 09:37:55;;;;;;;6.00;1.80;;;;;;;24.32;44.88;101161.84;5006740;28;20231;-72
2021/06/16 09:40:25;;;;;;;2.35;1.67;;;;;;;24.29;44.11;101162.06;5003365;28;20196;-71
2021/06/16 09:42:55;;;;;;;3.67;1.70;;;;;;;24.14;44.33;101161.44;5007485;28;20220;-71
2021/06/16 09:45:22;;;;;;;2.17;1.50;;;;;;;24.38;45.72;101154.25;5004272;28;20215;-70
2021/06/16 09:47:48;;;;;;;2.95;1.67;;;;;;;24.50;44.20;101157.81;5009315;28;20224;-71
2021/06/16 09:50:22;;;;;;;3.97;1.63;;;;;;;24.49;45.13;101144.59;5006023;28;20709;-70
2021/06/16 09:52:50;;;;;;;2.40;1.52;;;;;;;24.71;44.33;101149.13;5004135;28;20210;-70
2021/06/16 09:55:28;;;;;;;2.95;1.60;;;;;;;24.79;44.70;101140.56;4983502;28;20220;-72
2021/06/16 09:57:59;;;;;;;2.72;1.77;;;;;;;24.80;43.24;101145.75;5007641;28;20228;-71
2021/06/16 10:00:27;;;;;;;2.38;1.80;;;;;;;24.51;44.23;101140.81;5001839;28;20213;-71
2021/06/16 10:03:08;;;;;;;2.42;1.70;;;;;;;24.69;43.89;101137.75;5003136;28;20238;-70
2021/06/16 10:05:56;;;;;;;2.00;1.80;;;;;;;24.73;43.27;101131.19;5006176;28;20294;-73
2021/06/16 10:08:24;;;;;;;1.60;1.45;;;;;;;24.92;45.62;101119.94;5001760;28;20705;-70
2021/06/16 10:10:50;;;;;;;2.38;1.67;;;;;;;25.19;43.88;101132.91;5004344;28;20204;-70
2021/06/16 10:13:19;;;;;;;3.88;1.80;;;;;;;25.04;42.90;101128.78;5000882;28;20220;-71
2021/06/16 10:15:45;;;;;;;1.83;1.67;;;;;;;24.77;43.81;101132.66;5005380;28;20769;-71
2021/06/16 10:18:13;;;;;;;2.15;1.70;;;;;;;24.86;43.50;101125.75;5002199;28;20233;-71
2021/06/16 10:20:40;;;;;;;2.38;1.70;;;;;;;24.91;43.67;101131.59;5007555;28;20295;-71
2021/06/16 10:23:07;;;;;;;2.83;1.88;;;;;;;25.16;44.33;101126.97;4997502;28;20232;-73
2021/06/16 10:25:33;;;;;;;2.00;1.80;;;;;;;25.25;45.04;101121.75;4980271;28;20370;-70
2021/06/16 10:28:02;;;;;;;4.47;2.00;;;;;;;25.29;42.97;101130.38;5002127;28;20224;-71
2021/06/16 10:30:31;;;;;;;2.30;1.77;;;;;;;25.27;43.29;101121.63;5004413;28;20693;-70
2021/06/16 10:32:58;;;;;;;2.35;1.88;;;;;;;25.20;42.77;101115.06;5001554;28;20708;-71
2021/06/16 10:35:35;;;;;;;2.50;2.03;;;;;;;25.48;46.67;101100.38;4999268;28;20209;-73
2021/06/16 10:38:13;;;;;;;1.92;1.80;;;;;;;25.41;44.18;101105.34;5001897;28;20228;-72
2021/06/16 10:40:46;;;;;;;3.42;1.60;;;;;;;25.54;43.49;101112.34;5000363;28;20668;-71
2021/06/16 10:43:17;;;;;;;2.17;1.90;;;;;;;25.50;42.94;101104.63;5004986;28;20255;-72
2021/06/16 10:45:55;;;;;;;3.08;1.70;;;;;;;25.61;43.02;101108.22;5003668;28;20225;-69
2021/06/16 10:48:23;;;;;;;2.70;1.92;;;;;;;25.64;44.34;101102.63;5004255;28;20712;-71
2021/06/16 10:51:03;;;;;;;2.47;2.17;;;;;;;25.68;43.21;101112.94;4998865;28;20211;-71
2021/06/16 10:53:30;;;;;;;2.45;2.25;;;;;;;25.55;41.72;101106.06;5006355;28;20723;-71
2021/06/16 10:56:07;;;;;;;2.97;2.35;;;;;;;25.57;41.99;101101.44;5000223;28;20214;-73
2021/06/16 10:58:44;;;;;;;2.00;1.85;;;;;;;25.73;44.34;101090.34;5003798;28;20781;-71
2021/06/16 11:01:13;;;;;;;2.85;2.15;;;;;;;25.93;44.19;101084.19;4984112;28;20243;-70
2021/06/16 11:04:02;;;;;;;2.90;2.60;;;;;;;26.05;43.61;101080.50;4999176;28;20286;-70
2021/06/16 11:06:39;;;;;;;3.05;2.15;;;;;;;26.24;42.37;101082.47;5000261;28;20268;-70
2021/06/16 11:09:08;;;;;;;3.65;2.40;;;;;;;26.20;40.98;101077.50;4998940;28;20204;-73
2021/06/16 11:12:07;;;;;;;5.72;2.35;;;;;;;26.11;41.53;101079.16;5002925;28;20208;-71
2021/06/16 11:14:50;;;;;;;2.83;2.10;;;;;;;26.36;44.65;101059.19;4993439;28;20205;-75
2021/06/16 11:17:39;;;;;;;2.85;2.47;;;;;;;26.40;42.71;101071.31;4997618;28;20228;-72
2021/06/16 11:20:08;;;;;;;3.58;2.50;;;;;;;26.47;43.17;101058.25;5001487;28;20903;-74
2021/06/16 11:22:37;;;;;;;2.90;2.40;;;;;;;26.58;44.17;101057.34;4997991;28;20305;-71
2021/06/16 11:25:09;;;;;;;3.10;2.55;;;;;;;26.39;42.27;101058.91;4999896;28;20205;-72
2021/06/16 11:27:59;;;;;;;2.53;2.30;;;;;;;26.38;42.56;101045.69;4994450;28;20232;-71
2021/06/16 11:30:35;;;;;;;3.92;2.33;;;;;;;26.58;42.69;101049.31;5007381;28;20208;-72
2021/06/16 11:33:25;;;;;;;5.25;2.40;;;;;;;26.70;42.94;101048.28;5000533;28;20258;-73
2021/06/16 11:35:56;;;;;;;3.00;2.40;;;;;;;26.80;41.38;101054.47;5006761;28;20209;-72
2021/06/16 11:38:29;;;;;;;2.85;2.25;;;;;;;26.93;44.19;101030.19;5001332;28;20874;-73
2021/06/16 11:40:59;;;;;;;2.90;2.17;;;;;;;26.78;41.83;101040.41;4999820;28;20208;-72
2021/06/16 11:43:34;;;;;;;3.65;2.30;;;;;;;26.95;42.37;101044.25;5001254;28;20220;-72